Time;durP1;ratioP1;P1;durP2;ratioP2;P2;SDS_P1;SDS_P2;PMS_P1;PMS_P2;Temp;Humidity;BMP_temperature;BMP_pressure;BME280_temperature;BME280_humidity;BME280_pressure;Samples;Min_cycle;Max_cycle;Signal;HPM_P1;HPM_P2
2024/02/07 00:01:20;;;;;;;14.73;1.40;;;;;;;;;;5121773;28;20055;-62
2024/02/07 00:03:45;;;;;;;14.43;2.03;;;;;;;;;;5116498;28;20097;-62
2024/02/07 00:06:12;;;;;;;10.13;1.92;;;;;;;;;;5125356;28;20426;-62
2024/02/07 00:08:38;;;;;;;12.05;1.85;;;;;;;;;;5117432;28;20043;-62
2024/02/07 00:11:04;;;;;;;12.43;2.60;;;;;;;;;;5123915;28;20043;-62
2024/02/07 00:13:29;;;;;;;9.43;1.80;;;;;;;;;;5115421;28;20095;-62
2024/02/07 00:15:54;;;;;;;7.07;1.73;;;;;;;;;;5115862;28;20279;-61
2024/02/07 00:18:20;;;;;;;20.65;2.10;;;;;;;;;;5116307;28;20032;-62
2024/02/07 00:20:45;;;;;;;16.67;2.03;;;;;;;;;;5123114;28;20053;-63
2024/02/07 00:23:11;;;;;;;8.80;1.90;;;;;;;;;;5116031;28;20040;-62
2024/02/07 00:25:36;;;;;;;19.57;2.43;;;;;;;;;;5115942;28;20079;-61
2024/02/07 00:28:02;;;;;;;15.20;2.10;;;;;;;;;;5104604;28;20035;-62
2024/02/07 00:30:29;;;;;;;10.07;2.00;;;;;;;;;;5122080;28;20036;-62
2024/02/07 00:32:54;;;;;;;6.45;2.13;;;;;;;;;;5116246;28;20040;-62
2024/02/07 00:35:20;;;;;;;9.77;1.77;;;;;;;;;;5114749;28;20167;-61
2024/02/07 00:37:45;;;;;;;18.92;2.15;;;;;;;;;;5116096;28;20027;-61
2024/02/07 00:40:11;;;;;;;11.40;2.10;;;;;;;;;;5120374;28;20032;-62
2024/02/07 00:42:36;;;;;;;10.35;1.80;;;;;;;;;;5104773;28;20044;-61
2024/02/07 00:45:03;;;;;;;20.60;1.98;;;;;;;;;;5114808;28;20098;-62
2024/02/07 00:47:29;;;;;;;19.25;1.90;;;;;;;;;;5125223;28;20029;-61
2024/02/07 00:49:54;;;;;;;15.75;2.20;;;;;;;;;;5117750;28;20065;-61
2024/02/07 00:52:20;;;;;;;12.47;3.17;;;;;;;;;;5115558;28;20043;-62
2024/02/07 00:54:45;;;;;;;15.77;1.88;;;;;;;;;;5096060;28;20127;-62
2024/02/07 00:57:11;;;;;;;9.87;1.90;;;;;;;;;;5113693;28;20028;-61
2024/02/07 00:59:37;;;;;;;14.40;2.20;;;;;;;;;;5115571;28;20024;-62
2024/02/07 01:02:03;;;;;;;12.35;2.10;;;;;;;;;;5113972;28;20039;-62
2024/02/07 01:04:28;;;;;;;11.88;2.50;;;;;;;;;;5115502;28;20041;-62
2024/02/07 01:06:53;;;;;;;26.40;3.47;;;;;;;;;;5112994;28;20036;-62
2024/02/07 01:09:20;;;;;;;13.63;2.17;;;;;;;;;;5113834;28;20035;-61
2024/02/07 01:11:45;;;;;;;;;;;;;;;;;;5113873;28;20268;-62
2024/02/07 01:14:11;;;;;;;16.70;1.90;;;;;;;;;;5113403;28;19971;-61
2024/02/07 01:16:37;;;;;;;16.88;2.85;;;;;;;;;;5115205;28;20032;-61
2024/02/07 01:19:02;;;;;;;9.73;1.77;;;;;;;;;;5117786;28;20045;-61
2024/02/07 01:21:29;;;;;;;20.02;2.63;;;;;;;;;;5122453;28;20292;-61
2024/02/07 01:23:56;;;;;;;29.67;2.37;;;;;;;;;;5099960;28;20033;-62
2024/02/07 01:26:21;;;;;;;15.67;2.93;;;;;;;;;;5109229;28;20348;-61
2024/02/07 01:28:48;;;;;;;15.13;2.45;;;;;;;;;;5115052;28;20024;-61
2024/02/07 01:31:14;;;;;;;20.35;2.75;;;;;;;;;;5124184;28;20032;-61
2024/02/07 01:33:42;;;;;;;15.57;2.00;;;;;;;;;;5127007;28;20034;-62
2024/02/07 01:36:07;;;;;;;15.00;2.30;;;;;;;;;;5124054;28;20036;-62
2024/02/07 01:38:33;;;;;;;10.57;1.73;;;;;;;;;;5116913;28;20249;-61
2024/02/07 01:40:58;;;;;;;20.43;2.30;;;;;;;;;;5120845;28;20036;-62
2024/02/07 01:43:29;;;;;;;17.45;3.45;;;;;;;;;;5114952;28;20043;-60
2024/02/07 01:45:56;;;;;;;16.53;3.17;;;;;;;;;;5121062;28;20032;-62
2024/02/07 01:48:22;;;;;;;29.17;3.03;;;;;;;;;;5110589;28;20269;-62
2024/02/07 01:50:50;;;;;;;14.18;2.72;;;;;;;;;;5113769;28;20267;-61
2024/02/07 01:53:17;;;;;;;10.43;2.13;;;;;;;;;;5123431;28;20040;-62
2024/02/07 01:55:44;;;;;;;13.50;2.13;;;;;;;;;;5118953;28;20264;-62
2024/02/07 01:58:10;;;;;;;14.20;2.47;;;;;;;;;;5114297;28;20265;-62
2024/02/07 02:00:36;;;;;;;36.17;3.73;;;;;;;;;;5124753;28;20270;-62
2024/02/07 02:03:01;;;;;;;16.77;3.58;;;;;;;;;;5114474;28;20024;-61
2024/02/07 02:05:26;;;;;;;11.60;3.97;;;;;;;;;;5114623;28;20051;-62
2024/02/07 02:07:53;;;;;;;17.70;3.63;;;;;;;;;;5120549;28;20320;-61
2024/02/07 02:10:19;;;;;;;18.33;3.33;;;;;;;;;;5123176;28;20057;-62
2024/02/07 02:12:45;;;;;;;24.83;3.08;;;;;;;;;;5131877;28;20020;-61
2024/02/07 02:15:10;;;;;;;22.80;2.70;;;;;;;;;;5121598;28;20056;-62
2024/02/07 02:17:35;;;;;;;17.10;3.77;;;;;;;;;;5121044;28;20287;-61
2024/02/07 02:20:04;;;;;;;10.40;2.23;;;;;;;;;;5126229;28;20020;-62
2024/02/07 02:22:38;;;;;;;18.50;3.67;;;;;;;;;;5126894;28;20039;-61
2024/02/07 02:25:16;;;;;;;21.73;3.75;;;;;;;;;;5121368;28;20059;-62
2024/02/07 02:27:56;;;;;;;18.33;4.15;;;;;;;;;;5121212;28;20069;-62
2024/02/07 02:30:33;;;;;;;18.67;2.72;;;;;;;;;;5122091;28;20080;-61
2024/02/07 02:33:00;;;;;;;24.27;4.32;;;;;;;;;;5122040;28;20089;-61
2024/02/07 02:35:27;;;;;;;24.77;3.55;;;;;;;;;;5115607;28;20096;-63
2024/02/07 02:37:53;;;;;;;29.75;3.85;;;;;;;;;;5120936;28;20085;-62
2024/02/07 02:40:19;;;;;;;19.37;3.87;;;;;;;;;;5121842;28;20024;-61
2024/02/07 02:42:45;;;;;;;24.02;4.75;;;;;;;;;;5121008;28;20027;-61
2024/02/07 02:45:10;;;;;;;11.75;3.40;;;;;;;;;;5121075;28;20036;-62
2024/02/07 02:47:35;;;;;;;25.67;5.70;;;;;;;;;;5139980;28;20038;-61
2024/02/07 02:50:01;;;;;;;30.43;4.83;;;;;;;;;;5125652;28;20042;-61
2024/02/07 02:52:27;;;;;;;19.33;4.63;;;;;;;;;;5128385;28;20043;-61
2024/02/07 02:54:53;;;;;;;22.77;4.75;;;;;;;;;;5134030;28;20049;-61
2024/02/07 02:57:18;;;;;;;23.58;4.35;;;;;;;;;;5120872;28;20024;-61
2024/02/07 02:59:44;;;;;;;26.63;4.50;;;;;;;;;;5123030;28;20062;-62
2024/02/07 03:02:09;;;;;;;27.93;5.70;;;;;;;;;;5128115;28;20260;-61
2024/02/07 03:04:43;;;;;;;38.27;6.53;;;;;;;;;;5120686;28;20035;-60
2024/02/07 03:09:54;;;;;;;28.38;4.65;;;;;;;;;;5125783;28;20031;-61
2024/02/07 03:12:20;;;;;;;24.58;4.13;;;;;;;;;;5124992;28;20073;-61
2024/02/07 03:14:45;;;;;;;17.58;5.32;;;;;;;;;;5120815;28;20032;-62
2024/02/07 03:17:12;;;;;;;13.30;3.83;;;;;;;;;;5129847;28;20076;-62
2024/02/07 03:19:37;;;;;;;19.55;3.17;;;;;;;;;;5118413;28;20091;-62
2024/02/07 03:22:03;;;;;;;24.20;4.23;;;;;;;;;;5120007;28;20028;-61
2024/02/07 03:24:28;;;;;;;10.33;2.43;;;;;;;;;;5121260;28;20062;-61
2024/02/07 03:26:54;;;;;;;12.40;2.57;;;;;;;;;;5116305;28;20276;-61
2024/02/07 03:29:19;;;;;;;13.47;2.07;;;;;;;;;;5117480;28;20283;-61
2024/02/07 03:31:45;;;;;;;13.10;2.03;;;;;;;;;;5120154;28;20028;-61
2024/02/07 03:34:10;;;;;;;18.70;2.83;;;;;;;;;;5125965;28;20292;-61
2024/02/07 03:36:36;;;;;;;11.00;2.08;;;;;;;;;;5117169;28;20028;-61
2024/02/07 03:39:03;;;;;;;9.00;2.72;;;;;;;;;;5119049;28;20061;-62
2024/02/07 03:41:29;;;;;;;16.50;2.70;;;;;;;;;;5134961;28;20031;-61
2024/02/07 03:43:54;;;;;;;10.13;1.80;;;;;;;;;;5122487;28;20061;-61
2024/02/07 03:46:20;;;;;;;13.03;2.03;;;;;;;;;;5115285;28;20032;-61
2024/02/07 03:48:45;;;;;;;21.47;2.63;;;;;;;;;;5105769;28;20067;-61
2024/02/07 03:51:15;;;;;;;15.40;2.93;;;;;;;;;;5127540;28;20350;-62
2024/02/07 03:53:45;;;;;;;27.83;2.30;;;;;;;;;;5115936;28;20092;-61
2024/02/07 03:56:11;;;;;;;21.33;2.15;;;;;;;;;;5116804;28;20073;-61
2024/02/07 03:58:37;;;;;;;18.23;2.65;;;;;;;;;;5117203;28;20103;-61
2024/02/07 04:01:03;;;;;;;17.15;2.60;;;;;;;;;;5125461;28;20036;-61
2024/02/07 04:03:29;;;;;;;20.87;3.20;;;;;;;;;;5117020;28;20028;-62
2024/02/07 04:05:56;;;;;;;14.95;2.63;;;;;;;;;;5116920;28;20146;-61
2024/02/07 04:08:22;;;;;;;13.40;2.33;;;;;;;;;;5106990;28;20047;-61
2024/02/07 04:10:51;;;;;;;11.63;2.27;;;;;;;;;;5119509;28;20028;-61
2024/02/07 05:16:11;;;;;;;19.42;2.80;;;;;;;;;;5115366;28;20036;-61
2024/02/07 05:18:37;;;;;;;13.05;2.90;;;;;;;;;;5115452;28;20077;-61
2024/02/07 05:21:03;;;;;;;29.87;3.37;;;;;;;;;;5121070;28;20020;-62
2024/02/07 05:23:29;;;;;;;16.25;2.30;;;;;;;;;;5115502;28;20257;-61
2024/02/07 05:25:56;;;;;;;24.80;2.90;;;;;;;;;;5117050;28;20036;-61
2024/02/07 05:28:22;;;;;;;13.27;2.08;;;;;;;;;;5101460;28;20020;-61
2024/02/07 05:30:47;;;;;;;12.53;1.93;;;;;;;;;;5120728;28;20053;-62
2024/02/07 05:33:13;;;;;;;16.80;2.60;;;;;;;;;;5101738;28;20568;-61
2024/02/07 05:35:39;;;;;;;11.67;2.67;;;;;;;;;;5114558;28;20032;-60
2024/02/07 05:38:04;;;;;;;16.67;3.30;;;;;;;;;;5113761;28;20261;-60
2024/02/07 05:40:30;;;;;;;28.58;5.40;;;;;;;;;;5117334;28;20562;-60
2024/02/07 05:42:55;;;;;;;32.70;6.22;;;;;;;;;;5115993;28;20036;-61
2024/02/07 05:45:21;;;;;;;42.07;6.03;;;;;;;;;;5114626;28;20035;-61
2024/02/07 05:47:46;;;;;;;25.23;3.85;;;;;;;;;;5114535;28;20035;-61
2024/02/07 05:50:12;;;;;;;32.33;4.47;;;;;;;;;;5115000;28;20100;-60
2024/02/07 05:52:40;;;;;;;11.90;2.27;;;;;;;;;;5113055;28;20028;-59
2024/02/07 05:55:06;;;;;;;17.75;2.75;;;;;;;;;;5114640;28;20035;-60
2024/02/07 05:57:33;;;;;;;21.70;3.15;;;;;;;;;;5122421;28;20027;-60
2024/02/07 05:59:58;;;;;;;18.00;2.30;;;;;;;;;;5115070;28;20039;-60
2024/02/07 06:02:24;;;;;;;17.80;2.60;;;;;;;;;;5119481;28;20032;-61
2024/02/07 06:04:51;;;;;;;20.20;2.43;;;;;;;;;;5114754;28;20040;-60
2024/02/07 06:07:16;;;;;;;16.00;2.15;;;;;;;;;;5116268;28;20025;-59
2024/02/07 06:09:42;;;;;;;11.77;1.80;;;;;;;;;;5106405;28;20040;-60
2024/02/07 06:12:10;;;;;;;17.87;2.33;;;;;;;;;;5125608;28;20260;-61
2024/02/07 06:14:35;;;;;;;21.45;2.47;;;;;;;;;;5114729;28;20031;-61
2024/02/07 06:17:01;;;;;;;14.87;2.40;;;;;;;;;;5110133;28;20056;-58
2024/02/07 06:19:26;;;;;;;17.40;2.47;;;;;;;;;;5106773;28;20472;-57
2024/02/07 06:21:52;;;;;;;17.90;2.30;;;;;;;;;;5122287;28;20036;-61
2024/02/07 06:24:18;;;;;;;;;;;;;;;;;;5114993;28;20036;-59
2024/02/07 06:26:44;;;;;;;16.93;2.30;;;;;;;;;;5116573;28;19975;-60
2024/02/07 06:29:09;;;;;;;25.50;2.22;;;;;;;;;;5114483;28;20036;-59
2024/02/07 06:31:35;;;;;;;24.02;2.45;;;;;;;;;;5123075;28;20027;-61
2024/02/07 06:34:02;;;;;;;29.80;4.57;;;;;;;;;;5126452;28;20055;-59
2024/02/07 06:36:27;;;;;;;;;;;;;;;;;;5124488;28;20020;-61
2024/02/07 06:38:53;;;;;;;16.27;2.75;;;;;;;;;;5114404;28;19969;-59
2024/02/07 06:41:19;;;;;;;28.77;3.40;;;;;;;;;;5121373;28;20039;-61
2024/02/07 06:43:44;;;;;;;16.27;2.03;;;;;;;;;;5114278;28;20324;-57
2024/02/07 06:46:10;;;;;;;12.87;2.00;;;;;;;;;;5105500;28;20035;-60
2024/02/07 06:48:35;;;;;;;9.88;2.05;;;;;;;;;;5113134;28;20021;-61
2024/02/07 06:51:01;;;;;;;14.03;2.30;;;;;;;;;;5109903;28;20059;-58
2024/02/07 06:53:27;;;;;;;14.50;2.40;;;;;;;;;;5106893;28;20034;-57
2024/02/07 06:55:53;;;;;;;18.67;2.33;;;;;;;;;;5120855;28;20038;-58
2024/02/07 06:58:18;;;;;;;19.95;3.08;;;;;;;;;;5112498;28;20062;-58
2024/02/07 07:00:44;;;;;;;13.80;2.38;;;;;;;;;;5109742;28;20043;-64
2024/02/07 07:03:09;;;;;;;10.77;1.60;;;;;;;;;;5107357;28;20028;-59
2024/02/07 07:05:35;;;;;;;15.47;2.63;;;;;;;;;;5113272;28;20272;-62
2024/02/07 07:08:00;;;;;;;14.17;2.07;;;;;;;;;;5113431;28;20059;-59
2024/02/07 07:10:26;;;;;;;13.32;2.53;;;;;;;;;;5117613;28;20036;-59
2024/02/07 07:12:52;;;;;;;22.42;2.95;;;;;;;;;;5131313;28;20031;-57
2024/02/07 07:15:19;;;;;;;25.00;2.75;;;;;;;;;;5118208;28;20029;-59
2024/02/07 07:17:45;;;;;;;8.38;2.88;;;;;;;;;;5114832;28;20039;-57
2024/02/07 07:20:11;;;;;;;15.27;2.57;;;;;;;;;;5116391;28;20036;-59
2024/02/07 07:22:36;;;;;;;9.90;2.85;;;;;;;;;;5126885;28;20028;-59
2024/02/07 07:25:02;;;;;;;12.50;2.38;;;;;;;;;;5116540;28;20050;-60
2024/02/07 07:27:27;;;;;;;15.52;2.78;;;;;;;;;;5106938;28;20115;-58
2024/02/07 07:29:53;;;;;;;12.10;3.27;;;;;;;;;;5117303;28;20039;-56
2024/02/07 07:32:18;;;;;;;16.20;2.72;;;;;;;;;;5115196;28;20028;-58
2024/02/07 07:34:44;;;;;;;19.20;3.77;;;;;;;;;;5117449;28;20060;-59
2024/02/07 07:37:09;;;;;;;22.80;3.07;;;;;;;;;;5114916;28;20269;-60
2024/02/07 07:39:35;;;;;;;7.30;3.20;;;;;;;;;;5117467;28;20090;-59
2024/02/07 07:42:00;;;;;;;18.77;2.60;;;;;;;;;;5109446;28;20288;-58
2024/02/07 07:44:26;;;;;;;14.70;2.60;;;;;;;;;;5109140;28;20107;-60
2024/02/07 07:46:52;;;;;;;15.88;3.25;;;;;;;;;;5108724;28;20032;-60
2024/02/07 07:49:17;;;;;;;21.67;4.28;;;;;;;;;;5116108;28;20036;-61
2024/02/07 07:51:43;;;;;;;14.52;2.95;;;;;;;;;;5114092;28;20033;-57
2024/02/07 07:54:08;;;;;;;24.83;2.97;;;;;;;;;;5115661;28;20032;-58
2024/02/07 07:56:35;;;;;;;17.38;3.38;;;;;;;;;;5110232;28;20072;-57
2024/02/07 07:59:01;;;;;;;14.80;2.80;;;;;;;;;;5101811;28;20044;-59
2024/02/07 08:01:27;;;;;;;14.40;3.10;;;;;;;;;;5103043;28;20277;-59
2024/02/07 08:03:53;;;;;;;12.45;2.70;;;;;;;;;;5101667;28;20105;-60
2024/02/07 08:06:19;;;;;;;12.70;3.03;;;;;;;;;;5102576;28;20098;-58
2024/02/07 08:08:45;;;;;;;17.53;3.23;;;;;;;;;;5111491;28;20100;-60
2024/02/07 08:11:10;;;;;;;26.23;4.25;;;;;;;;;;5113601;28;20040;-59
2024/02/07 08:13:36;;;;;;;21.20;4.53;;;;;;;;;;5117936;28;20080;-60
2024/02/07 08:16:01;;;;;;;27.60;4.10;;;;;;;;;;5110203;28;20035;-60
2024/02/07 08:18:29;;;;;;;26.53;5.13;;;;;;;;;;5106406;28;20037;-59
2024/02/07 08:20:55;;;;;;;14.68;5.00;;;;;;;;;;5106461;28;20047;-59
2024/02/07 08:23:21;;;;;;;30.60;5.27;;;;;;;;;;5118065;28;20040;-59
2024/02/07 08:25:46;;;;;;;26.03;6.63;;;;;;;;;;5114662;28;20043;-57
2024/02/07 08:28:12;;;;;;;26.77;5.50;;;;;;;;;;5115750;28;20063;-59
2024/02/07 08:30:37;;;;;;;18.73;4.47;;;;;;;;;;5115653;28;20065;-59
2024/02/07 08:33:02;;;;;;;23.30;4.33;;;;;;;;;;5120807;28;20091;-61
2024/02/07 08:35:28;;;;;;;21.05;6.95;;;;;;;;;;5124932;28;20083;-60
2024/02/07 08:37:58;;;;;;;28.07;6.13;;;;;;;;;;5120218;28;20028;-59
2024/02/07 08:40:24;;;;;;;30.02;5.88;;;;;;;;;;5115892;28;20024;-56
2024/02/07 08:42:50;;;;;;;23.38;5.72;;;;;;;;;;5114581;28;20232;-59
2024/02/07 08:45:17;;;;;;;18.57;5.07;;;;;;;;;;5112230;28;20033;-58
2024/02/07 08:47:45;;;;;;;20.70;5.00;;;;;;;;;;5110205;28;20039;-62
2024/02/07 08:50:13;;;;;;;19.13;4.43;;;;;;;;;;5101222;28;20047;-59
2024/02/07 08:52:41;;;;;;;27.08;3.58;;;;;;;;;;5109612;28;20032;-57
2024/02/07 08:55:08;;;;;;;18.88;2.97;;;;;;;;;;5116790;28;20071;-56
2024/02/07 08:57:38;;;;;;;19.52;2.80;;;;;;;;;;5115815;28;20061;-60
2024/02/07 09:00:04;;;;;;;11.82;2.45;;;;;;;;;;5109012;28;20062;-59
2024/02/07 09:02:30;;;;;;;18.55;3.13;;;;;;;;;;5105106;28;20027;-59
2024/02/07 09:04:56;;;;;;;19.35;3.80;;;;;;;;;;5112293;28;20144;-59
2024/02/07 09:07:22;;;;;;;13.75;3.10;;;;;;;;;;5110516;28;20035;-60
2024/02/07 09:09:47;;;;;;;11.77;3.22;;;;;;;;;;5117980;28;20062;-60
2024/02/07 09:12:13;;;;;;;14.15;3.10;;;;;;;;;;5111478;28;20085;-60
2024/02/07 09:14:39;;;;;;;18.53;4.77;;;;;;;;;;5115041;28;20048;-59
2024/02/07 09:17:04;;;;;;;11.73;2.85;;;;;;;;;;5114052;28;20268;-60
2024/02/07 09:19:29;;;;;;;12.07;2.87;;;;;;;;;;5114934;28;20039;-59
2024/02/07 09:21:55;;;;;;;20.00;4.18;;;;;;;;;;5117872;28;20062;-59
2024/02/07 09:24:21;;;;;;;13.23;3.30;;;;;;;;;;5114858;28;20064;-59
2024/02/07 09:26:46;;;;;;;14.37;3.20;;;;;;;;;;5110597;28;20056;-60
2024/02/07 09:29:11;;;;;;;15.27;3.37;;;;;;;;;;5112899;28;20037;-60
2024/02/07 09:31:36;;;;;;;13.23;2.90;;;;;;;;;;5101797;28;20032;-59
2024/02/07 09:34:02;;;;;;;13.90;3.92;;;;;;;;;;5114175;28;20036;-60
2024/02/07 09:36:28;;;;;;;12.27;3.13;;;;;;;;;;5114501;28;20152;-60
2024/02/07 09:38:54;;;;;;;18.40;4.47;;;;;;;;;;5113548;28;20028;-61
2024/02/07 09:41:21;;;;;;;13.02;3.28;;;;;;;;;;5113791;28;20036;-64
2024/02/07 09:43:46;;;;;;;16.03;3.90;;;;;;;;;;5115029;28;20096;-61
2024/02/07 09:46:14;;;;;;;15.23;3.40;;;;;;;;;;5102310;28;20265;-58
2024/02/07 09:48:39;;;;;;;21.80;4.53;;;;;;;;;;5104680;28;20055;-60
2024/02/07 09:51:05;;;;;;;26.23;4.03;;;;;;;;;;5113402;28;20279;-57
2024/02/07 09:53:30;;;;;;;17.50;3.47;;;;;;;;;;5114967;28;20031;-60
2024/02/07 09:55:56;;;;;;;16.73;3.92;;;;;;;;;;5114368;28;20137;-58
2024/02/07 09:58:22;;;;;;;10.50;3.50;;;;;;;;;;5114885;28;20077;-58
2024/02/07 10:00:52;;;;;;;15.38;3.25;;;;;;;;;;5106072;28;20029;-60
2024/02/07 10:03:20;;;;;;;17.20;3.17;;;;;;;;;;5111514;28;20016;-60
2024/02/07 10:05:50;;;;;;;8.17;2.90;;;;;;;;;;5108464;28;20264;-58
2024/02/07 10:08:16;;;;;;;10.70;3.53;;;;;;;;;;5113562;28;20272;-59
2024/02/07 10:10:47;;;;;;;15.85;3.63;;;;;;;;;;5116473;28;20277;-60
2024/02/07 10:13:14;;;;;;;26.10;3.67;;;;;;;;;;5116942;28;20083;-59
2024/02/07 10:15:41;;;;;;;20.47;4.13;;;;;;;;;;5113367;28;20280;-60
2024/02/07 10:18:07;;;;;;;15.00;3.13;;;;;;;;;;5109658;28;20321;-60
2024/02/07 10:20:32;;;;;;;18.03;3.07;;;;;;;;;;5113385;28;20261;-59
2024/02/07 10:22:58;;;;;;;21.52;3.75;;;;;;;;;;5118174;28;20027;-60
2024/02/07 10:25:24;;;;;;;14.57;2.40;;;;;;;;;;5112395;28;20042;-59
2024/02/07 10:27:49;;;;;;;9.88;3.08;;;;;;;;;;5107544;28;20043;-60
2024/02/07 10:30:15;;;;;;;11.70;2.83;;;;;;;;;;5108162;28;20040;-60
2024/02/07 10:32:41;;;;;;;11.97;2.63;;;;;;;;;;5118838;28;20263;-61
2024/02/07 10:35:10;;;;;;;;;;;;;;;;;;5118198;28;20052;-60
2024/02/07 10:37:40;;;;;;;16.87;3.10;;;;;;;;;;5116962;28;19908;-60
2024/02/07 10:40:05;;;;;;;12.97;2.97;;;;;;;;;;5108792;28;20283;-59
2024/02/07 10:42:30;;;;;;;21.65;2.92;;;;;;;;;;5107562;28;20273;-60
2024/02/07 10:45:06;;;;;;;16.70;3.10;;;;;;;;;;5113057;28;20530;-60
2024/02/07 10:47:35;;;;;;;22.47;3.50;;;;;;;;;;5117868;28;20024;-57
2024/02/07 10:50:01;;;;;;;27.17;4.03;;;;;;;;;;5110885;28;20268;-60
2024/02/07 10:52:27;;;;;;;18.00;3.13;;;;;;;;;;5119683;28;20296;-59
2024/02/07 10:54:53;;;;;;;17.23;3.10;;;;;;;;;;5121971;28;20098;-57
2024/02/07 10:57:35;;;;;;;18.75;3.67;;;;;;;;;;5111746;28;20024;-60
2024/02/07 11:00:01;;;;;;;18.73;2.77;;;;;;;;;;5108514;28;20035;-60
2024/02/07 11:02:27;;;;;;;18.53;3.23;;;;;;;;;;5118900;28;20269;-53
2024/02/07 11:04:53;;;;;;;14.55;3.25;;;;;;;;;;5103421;28;20297;-58
2024/02/07 11:07:19;;;;;;;22.50;4.00;;;;;;;;;;5109542;28;20271;-57
2024/02/07 11:09:45;;;;;;;14.77;3.53;;;;;;;;;;5109060;28;20035;-60
2024/02/07 11:12:12;;;;;;;24.80;4.07;;;;;;;;;;5109281;28;20032;-58
2024/02/07 11:14:39;;;;;;;24.80;3.60;;;;;;;;;;5120128;28;20017;-59
2024/02/07 11:17:06;;;;;;;27.25;4.72;;;;;;;;;;5108582;28;20284;-60
2024/02/07 11:19:32;;;;;;;15.90;3.70;;;;;;;;;;5114707;28;20043;-60
2024/02/07 11:21:58;;;;;;;32.00;4.13;;;;;;;;;;5115192;28;20265;-59
2024/02/07 11:24:23;;;;;;;21.33;3.70;;;;;;;;;;5120171;28;20057;-60
2024/02/07 11:26:49;;;;;;;30.00;4.53;;;;;;;;;;5113424;28;20036;-59
2024/02/07 11:29:15;;;;;;;18.10;3.43;;;;;;;;;;5114764;28;20098;-58
2024/02/07 11:31:42;;;;;;;17.27;3.17;;;;;;;;;;5114686;28;20222;-57
2024/02/07 11:34:07;;;;;;;16.53;3.10;;;;;;;;;;5120865;28;20036;-57
2024/02/07 11:36:33;;;;;;;19.23;3.92;;;;;;;;;;5110960;28;20265;-58
2024/02/07 11:38:58;;;;;;;18.52;4.82;;;;;;;;;;5116374;28;20104;-60
2024/02/07 11:41:24;;;;;;;17.10;4.05;;;;;;;;;;5119631;28;20103;-59
2024/02/07 11:43:51;;;;;;;20.77;3.92;;;;;;;;;;5117255;28;20068;-60
2024/02/07 11:46:17;;;;;;;18.27;3.35;;;;;;;;;;5112308;28;20024;-60
2024/02/07 11:48:42;;;;;;;21.45;3.70;;;;;;;;;;5116500;28;20056;-59
2024/02/07 11:51:08;;;;;;;21.90;3.50;;;;;;;;;;5107681;28;20043;-59
2024/02/07 11:53:39;;;;;;;18.00;3.67;;;;;;;;;;5113216;28;20061;-60
2024/02/07 11:56:11;;;;;;;19.93;3.50;;;;;;;;;;5105401;28;20080;-58
2024/02/07 11:58:37;;;;;;;20.77;4.30;;;;;;;;;;5110290;28;20035;-59
2024/02/07 12:01:02;;;;;;;29.05;4.22;;;;;;;;;;5110355;28;20024;-58
2024/02/07 12:03:28;;;;;;;25.53;4.23;;;;;;;;;;5112255;28;20087;-60
2024/02/07 12:05:53;;;;;;;30.83;4.20;;;;;;;;;;5115824;28;20040;-59
2024/02/07 12:08:19;;;;;;;22.15;4.18;;;;;;;;;;5116332;28;20566;-60
2024/02/07 12:10:45;;;;;;;15.98;3.17;;;;;;;;;;5112063;28;20036;-58
2024/02/07 12:13:10;;;;;;;29.43;5.27;;;;;;;;;;5113550;28;20050;-60
2024/02/07 12:15:36;;;;;;;20.50;4.05;;;;;;;;;;5109600;28;20110;-59
2024/02/07 12:18:02;;;;;;;15.75;2.95;;;;;;;;;;5110241;28;20028;-60
2024/02/07 12:20:29;;;;;;;16.98;3.65;;;;;;;;;;5113502;28;20044;-59
2024/02/07 12:22:58;;;;;;;19.10;3.65;;;;;;;;;;5112983;28;20036;-58
2024/02/07 12:25:23;;;;;;;15.03;2.97;;;;;;;;;;5113957;28;20047;-59
2024/02/07 12:27:48;;;;;;;15.77;3.13;;;;;;;;;;5105904;28;20029;-60
2024/02/07 12:30:14;;;;;;;24.37;3.87;;;;;;;;;;5113860;28;20036;-60
2024/02/07 12:32:40;;;;;;;20.15;3.72;;;;;;;;;;5102338;28;20035;-60
2024/02/07 12:35:06;;;;;;;17.98;3.03;;;;;;;;;;5113727;28;20040;-59
2024/02/07 12:37:31;;;;;;;19.85;3.58;;;;;;;;;;5100194;28;20028;-62
2024/02/07 12:39:56;;;;;;;22.05;4.03;;;;;;;;;;5103623;28;20101;-63
2024/02/07 12:42:24;;;;;;;15.02;3.28;;;;;;;;;;5111899;28;20035;-60
2024/02/07 12:44:50;;;;;;;21.37;4.13;;;;;;;;;;5105821;28;20046;-60
2024/02/07 12:47:17;;;;;;;18.98;3.67;;;;;;;;;;5112381;28;20036;-60
2024/02/07 12:49:43;;;;;;;11.67;3.07;;;;;;;;;;5114710;28;20063;-60
2024/02/07 12:52:09;;;;;;;21.10;3.47;;;;;;;;;;5126801;28;20032;-61
2024/02/07 12:54:35;;;;;;;19.57;2.90;;;;;;;;;;5126696;28;20092;-60
2024/02/07 12:57:00;;;;;;;16.20;3.28;;;;;;;;;;5125279;28;20133;-60
2024/02/07 12:59:26;;;;;;;;;;;;;;;;;;5107105;28;20025;-60
2024/02/07 13:01:55;;;;;;;24.40;4.23;;;;;;;;;;5121205;28;19927;-59
2024/02/07 13:04:20;;;;;;;33.80;7.10;;;;;;;;;;5115675;28;20035;-62
2024/02/07 13:06:45;;;;;;;20.48;4.05;;;;;;;;;;5114831;28;20084;-60
2024/02/07 13:09:11;;;;;;;18.40;3.65;;;;;;;;;;5111775;28;20037;-60
2024/02/07 13:11:36;;;;;;;34.67;4.93;;;;;;;;;;5100761;28;20036;-61
2024/02/07 13:14:02;;;;;;;22.38;4.05;;;;;;;;;;5114620;28;20051;-58
2024/02/07 13:16:32;;;;;;;18.43;3.33;;;;;;;;;;5099804;28;20048;-59
2024/02/07 13:18:57;;;;;;;25.93;3.93;;;;;;;;;;5105564;28;20087;-58
2024/02/07 13:21:22;;;;;;;23.47;4.33;;;;;;;;;;5113925;28;20028;-59
2024/02/07 13:23:48;;;;;;;15.82;3.85;;;;;;;;;;5123986;28;20047;-58
2024/02/07 13:26:14;;;;;;;23.17;3.57;;;;;;;;;;5110727;28;20073;-60
2024/02/07 13:28:39;;;;;;;22.33;3.60;;;;;;;;;;5114224;28;20031;-60
2024/02/07 13:31:05;;;;;;;25.90;3.65;;;;;;;;;;5110581;28;20024;-59
2024/02/07 13:33:30;;;;;;;19.35;4.20;;;;;;;;;;5113227;28;20383;-59
2024/02/07 13:35:56;;;;;;;20.05;4.20;;;;;;;;;;5121398;28;20024;-58
2024/02/07 13:38:21;;;;;;;22.23;3.70;;;;;;;;;;5110443;28;20139;-59
2024/02/07 13:40:47;;;;;;;24.27;3.45;;;;;;;;;;5114342;28;20032;-56
2024/02/07 13:43:13;;;;;;;20.75;4.60;;;;;;;;;;5119680;28;20095;-58
2024/02/07 13:45:38;;;;;;;18.73;3.93;;;;;;;;;;5121684;28;20020;-60
2024/02/07 13:48:04;;;;;;;20.15;3.20;;;;;;;;;;5118675;28;20272;-60
2024/02/07 13:50:30;;;;;;;18.63;3.35;;;;;;;;;;5112347;28;20056;-59
2024/02/07 13:52:55;;;;;;;20.38;4.07;;;;;;;;;;5106367;28;20052;-61
2024/02/07 13:55:21;;;;;;;17.03;3.43;;;;;;;;;;5115076;28;20024;-60
2024/02/07 13:57:46;;;;;;;30.55;5.22;;;;;;;;;;5113376;28;20055;-59
2024/02/07 14:00:12;;;;;;;30.93;3.30;;;;;;;;;;5111317;28;20032;-60
2024/02/07 14:02:37;;;;;;;18.02;3.50;;;;;;;;;;5097806;28;20033;-55
2024/02/07 14:05:03;;;;;;;18.15;2.45;;;;;;;;;;5112669;28;20025;-60
2024/02/07 14:07:30;;;;;;;21.95;3.72;;;;;;;;;;5106392;28;20055;-59
2024/02/07 14:09:56;;;;;;;20.87;3.50;;;;;;;;;;5107211;28;20047;-59
2024/02/07 14:12:21;;;;;;;20.50;3.63;;;;;;;;;;5111972;28;20028;-61
2024/02/07 14:14:47;;;;;;;20.73;2.87;;;;;;;;;;5114413;28;20020;-59
2024/02/07 14:17:12;;;;;;;22.23;3.78;;;;;;;;;;5121066;28;20090;-60
2024/02/07 14:19:38;;;;;;;13.73;3.63;;;;;;;;;;5109053;28;20035;-57
2024/02/07 14:22:04;;;;;;;14.43;3.20;;;;;;;;;;5111637;28;20084;-58
2024/02/07 14:24:30;;;;;;;14.95;2.90;;;;;;;;;;5112511;28;20029;-57
2024/02/07 14:26:55;;;;;;;15.37;3.77;;;;;;;;;;5112711;28;20046;-59
2024/02/07 14:29:21;;;;;;;14.38;2.63;;;;;;;;;;5097011;28;20036;-59
2024/02/07 14:31:48;;;;;;;21.92;3.97;;;;;;;;;;5109690;28;20033;-58
2024/02/07 14:34:13;;;;;;;23.03;3.97;;;;;;;;;;5110435;28;20039;-56
2024/02/07 14:36:38;;;;;;;20.63;3.73;;;;;;;;;;5102417;28;20273;-58
2024/02/07 14:39:04;;;;;;;21.83;3.53;;;;;;;;;;5103053;28;20025;-59
2024/02/07 14:41:29;;;;;;;19.63;2.40;;;;;;;;;;5103394;28;20029;-56
2024/02/07 14:43:55;;;;;;;17.77;2.47;;;;;;;;;;5107683;28;20087;-59
2024/02/07 14:46:21;;;;;;;23.40;3.63;;;;;;;;;;5113771;28;20036;-58
2024/02/07 14:48:46;;;;;;;17.27;2.97;;;;;;;;;;5112979;28;20084;-56
2024/02/07 14:51:12;;;;;;;28.70;3.55;;;;;;;;;;5107632;28;20052;-60
2024/02/07 14:53:37;;;;;;;23.75;4.13;;;;;;;;;;5117187;28;20020;-60
2024/02/07 14:56:03;;;;;;;13.10;3.40;;;;;;;;;;5112090;28;20051;-58
2024/02/07 14:58:28;;;;;;;26.38;4.10;;;;;;;;;;5108972;28;20013;-56
2024/02/07 15:00:54;;;;;;;28.63;5.10;;;;;;;;;;5100234;28;20040;-57
2024/02/07 15:03:19;;;;;;;22.02;3.03;;;;;;;;;;5113038;28;20321;-58
2024/02/07 15:05:45;;;;;;;12.40;3.00;;;;;;;;;;5119219;28;20043;-59
2024/02/07 15:08:11;;;;;;;18.83;3.47;;;;;;;;;;5113375;28;20039;-60
2024/02/07 15:10:38;;;;;;;19.87;3.10;;;;;;;;;;5097479;28;20028;-59
2024/02/07 15:13:03;;;;;;;17.20;2.42;;;;;;;;;;5113174;28;20284;-60
2024/02/07 15:15:28;;;;;;;19.10;3.27;;;;;;;;;;5118303;28;20015;-58
2024/02/07 15:17:54;;;;;;;19.02;3.75;;;;;;;;;;5119049;28;20219;-60
2024/02/07 15:20:19;;;;;;;24.87;4.20;;;;;;;;;;5116773;28;20039;-58
2024/02/07 15:22:45;;;;;;;20.55;4.00;;;;;;;;;;5117932;28;20038;-60
2024/02/07 15:25:11;;;;;;;18.57;3.27;;;;;;;;;;5110581;28;20048;-60
2024/02/07 15:27:37;;;;;;;;;;;;;;;;;;5117229;28;20063;-58
2024/02/07 15:30:03;;;;;;;14.30;2.37;;;;;;;;;;5116178;28;19912;-57
2024/02/07 15:32:30;;;;;;;17.37;3.10;;;;;;;;;;5116240;28;20028;-60